ローマ・レオナルド・ダ・ビンチ国際空港の過去48時間の天気

ローマ・レオナルド・ダ・ビンチ国際空港 (Roma Fiumicino)

現在時刻: 8/13 08:23 CEST (8/13 06:23 UTC) 以下の時間は現地時間です。

過去48時間のMETAR気象情報
時間 風向 風速(m/s) 視程 気温(℃) 湿度(%) 気圧(hPa) 天気現象
13 07:50 東北東 2 10km以上 22 83 1016
13 07:20 東北東 1 10km以上 20 100 1016
13 06:50 東北東 2 4000m 20 94 1016 もや
13 06:20 1 2000m 20 100 1016 部分霧
13 05:50 東北東 1 1500m 20 100 1016 部分霧
13 05:20 2 50m 20 94 1016
13 04:50 不定 1 700m 20 100 1016
13 04:20 不定 1 50m 22 100 1016
13 03:50 2 500m 22 100 1016
13 03:20 不定 1 2000m 21 100 1016 部分霧
13 02:50 不定 1 3000m 21 100 1016 部分霧
13 02:20 東北東 1 7000m 22 100 1016 散在した霧
13 01:50 1 9000m 23 94 1016 散在した霧
13 01:20 東北東 1 9000m 23 100 1016 散在した霧
13 00:50 北西 1 9000m 23 94 1016 散在した霧
13 00:20 西 1 9000m 23 94 1016 散在した霧
12 23:50 西 1 10km以上 23 100 1016
12 23:20 北西 1 10km以上 24 100 1016
12 22:50 不定 1 10km以上 25 94 1016
12 22:20 不定 1 10km以上 25 94 1016
12 21:50 不定 1 10km以上 25 94 1016
12 21:20 不定 1 10km以上 25 94 1016
12 20:50 西 2 10km以上 26 89 1016
12 20:20 西 2 10km以上 26 89 1015
12 19:50 西 3 10km以上 27 79 1015
12 19:20 西 4 10km以上 27 74 1015
12 18:50 西 4 10km以上 28 70 1015
12 18:20 西 5 10km以上 29 62 1015
12 17:50 西南西 5 10km以上 29 62 1015
12 17:20 西南西 6 10km以上 29 55 1016
12 16:50 西 5 10km以上 30 49 1016
12 16:20 西南西 5 10km以上 31 43 1016
12 15:50 西南西 5 10km以上 31 43 1016
12 15:20 西 5 10km以上 30 49 1016
12 14:50 西 4 10km以上 30 52 1016
12 14:20 西 5 10km以上 30 49 1016
12 13:50 西 4 10km以上 31 52 1016
12 13:20 西南西 4 10km以上 30 59 1016
12 12:50 西 5 10km以上 29 62 1017
12 12:20 西南西 4 10km以上 30 55 1017
12 11:50 西南西 4 10km以上 30 52 1016
12 11:20 西南西 4 10km以上 30 49 1016
12 10:50 西南西 4 10km以上 30 49 1016
12 10:20 南南西 2 10km以上 30 46 1016
12 09:50 不定 1 10km以上 29 52 1016
12 09:20 2 10km以上 28 58 1016
12 08:50 2 10km以上 26 65 1016
12 08:20 東北東 2 10km以上 24 78 1016
12 07:50 不定 1 7000m 22 94 1016
12 07:20 不定 1 5000m 20 100 1015 部分霧
12 06:50 1 5000m 19 94 1015 地霧 もや
12 06:20 1 200m 20 100 1015
12 05:50 不定 1 1500m 20 100 1015 部分霧
12 05:20 不定 1 5000m 20 100 1015 部分霧 もや
12 04:50 北東 2 7000m 20 100 1015 散在した霧
12 04:20 北東 1 8000m 20 100 1015
12 03:50 東北東 2 8000m 20 100 1015
12 03:20 東北東 1 8000m 20 100 1015
12 02:50 不定 1 10km以上 21 100 1015
12 02:20 不定 1 10km以上 21 100 1016
12 01:50 1 10km以上 21 100 1016
12 01:20 不定 1 10km以上 21 100 1016
12 00:50 北東 1 10km以上 22 100 1016
12 00:20 不定 1 10km以上 23 94 1016
11 23:50 不定 1 10km以上 24 94 1015
11 23:20 南西 3 10km以上 24 89 1016
11 22:50 西南西 3 10km以上 24 89 1016
11 22:20 南南西 2 10km以上 25 89 1016
11 21:50 不定 1 10km以上 25 89 1016
11 21:20 南西 2 10km以上 25 89 1015
11 20:50 西南西 3 10km以上 25 89 1015
11 19:50 西南西 3 10km以上 27 74 1015
11 19:20 西南西 2 10km以上 28 66 1015
11 18:50 西 3 10km以上 28 70 1015
11 18:20 西 4 10km以上 28 70 1015
11 17:50 西 5 10km以上 29 62 1015
11 17:20 西南西 4 10km以上 29 66 1015
11 16:50 西南西 5 10km以上 29 62 1015
11 16:20 西南西 5 10km以上 29 62 1015
11 15:20 西南西 5 10km以上 30 59 1015
11 14:50 南西 5 10km以上 30 59 1015
11 14:20 南西 5 10km以上 30 55 1015
11 13:50 西南西 5 10km以上 31 55 1015
11 13:20 南西 5 10km以上 30 66 1016
11 12:50 西南西 5 10km以上 30 62 1016
11 12:20 南西 5 10km以上 30 62 1016
11 11:50 南南西 4 10km以上 31 49 1016
11 11:20 南南西 3 10km以上 30 52 1016
11 10:50 南南西 2 10km以上 30 52 1016
11 10:20 2 10km以上 29 58 1016
11 09:50 2 10km以上 28 70 1015
11 09:20 2 10km以上 28 70 1015
11 08:50 東南東 2 10km以上 26 79 1015
LIRF 130550Z 07003KT CAVOK 22/19 Q1016 NOSIG
LIRF 130520Z 07002KT CAVOK 20/20 Q1016 NOSIG
LIRF 130450Z 06003KT 4000 1500S BR NSC 20/19 Q1016 NOSIG
LIRF 130420Z 08002KT 2000 0400SW PRFG NSC 20/20 Q1016 NOSIG
LIRF 130350Z 06002KT 1500 0400E PRFG SCT002 20/20 Q1016 NOSIG
LIRF 130320Z 01003KT 0050 R16L/P1500N R16R/P1500N R25/1400U R34R/1400U FG SCT001 20/19 Q1016 NOSIG
LIRF 130250Z VRB01KT 0700 0200E R16L/P1500N R16R/0600U R25/0225N R34R/0250N FG FEW003 20/20 Q1016 NOSIG
LIRF 130220Z VRB02KT 0050 R16L/P1500N R16R/1300D R25/0550D R34R/1300U FG BKN001 22/22 Q1016 NOSIG
LIRF 130150Z 01003KT 0500 0200E R16L/1400U R16R/P1500N R25/1300D R34R/1300D FG BKN001 22/22 Q1016 NOSIG
LIRF 130120Z VRB02KT 2000 0800S R16L/P1500N R16R/1400U R25/P1500N R34R/P1500N PRFG SCT001 21/21 Q1016 BECMG 0800 FG
LIRF 130050Z VRB02KT 3000 R16L/P1500N R16R/0450D R25/P1500N R34R/P1500N PRFG NSC 21/21 Q1016 BECMG 0800 FG
LIRF 130020Z 06001KT 7000 BCFG NSC 22/22 Q1016 NOSIG
LIRF 122350Z 10002KT 9000 BCFG NSC 23/22 Q1016 NOSIG
LIRF 122320Z 06002KT 9000 BCFG NSC 23/23 Q1016 BECMG 4000 BCFG
LIRF 122250Z 31001KT 9000 BCFG FEW005 23/22 Q1016 BECMG 4000 BCFG
LIRF 122220Z 28002KT 9000 R16L/P1500N R16R/P1500N R25/1400U R34R/P1500N BCFG SCT005 23/22 Q1016 BECMG 4000 BCFG
LIRF 122150Z 27002KT CAVOK 23/23 Q1016 NOSIG
LIRF 122120Z 31001KT CAVOK 24/24 Q1016 NOSIG
LIRF 122050Z VRB01KT CAVOK 25/24 Q1016 NOSIG
LIRF 122020Z VRB01KT CAVOK 25/24 Q1016 NOSIG
LIRF 121950Z VRB01KT CAVOK 25/24 Q1016 NOSIG
LIRF 121920Z VRB01KT CAVOK 25/24 Q1016 NOSIG
LIRF 121850Z 26004KT CAVOK 26/24 Q1016 NOSIG
LIRF 121820Z 28004KT CAVOK 26/24 Q1015 NOSIG
LIRF 121750Z 28005KT 250V320 CAVOK 27/23 Q1015 NOSIG
LIRF 121720Z 27008KT CAVOK 27/22 Q1015 NOSIG
LIRF 121650Z 26008KT CAVOK 28/22 Q1015 NOSIG
LIRF 121620Z 26009KT CAVOK 29/21 Q1015 NOSIG
LIRF 121550Z 25009KT CAVOK 29/21 Q1015 NOSIG
LIRF 121520Z 25012KT CAVOK 29/19 Q1016 NOSIG
LIRF 121450Z 26010KT CAVOK 30/18 Q1016 NOSIG
LIRF 121420Z 25009KT 220V280 CAVOK 31/17 Q1016 NOSIG
LIRF 121350Z 25010KT CAVOK 31/17 Q1016 NOSIG
LIRF 121320Z 26009KT 230V290 CAVOK 30/18 Q1016 NOSIG
LIRF 121250Z 27007KT CAVOK 30/19 Q1016 NOSIG
LIRF 121220Z 27009KT 240V300 CAVOK 30/18 Q1016 NOSIG
LIRF 121150Z 27008KT 240V310 CAVOK 31/20 Q1016 NOSIG
LIRF 121120Z 25007KT 220V290 CAVOK 30/21 Q1016 NOSIG
LIRF 121050Z 26009KT 230V290 CAVOK 29/21 Q1017 NOSIG
LIRF 121020Z 24008KT 210V270 CAVOK 30/20 Q1017 NOSIG
LIRF 120950Z 25007KT 230V290 CAVOK 30/19 Q1016 NOSIG
LIRF 120920Z 24008KT CAVOK 30/18 Q1016 NOSIG
LIRF 120850Z 24007KT CAVOK 30/18 Q1016 NOSIG
LIRF 120820Z 21003KT 140V300 CAVOK 30/17 Q1016 NOSIG
LIRF 120750Z VRB01KT CAVOK 29/18 Q1016 NOSIG
LIRF 120720Z 08003KT 020V130 CAVOK 28/19 Q1016 NOSIG
LIRF 120650Z 10003KT 050V130 CAVOK 26/19 Q1016 NOSIG
LIRF 120620Z 06004KT CAVOK 24/20 Q1016 NOSIG
LIRF 120550Z VRB02KT 7000 NSC 22/21 Q1016 NOSIG
LIRF 120520Z VRB02KT 5000 2000SE PRFG NSC 20/20 Q1015 NOSIG
LIRF 120450Z 36002KT 5000 1300N R16L/P1500N R16R/P1500N R25/0400U R34R/1400D MIFG BR NSC 19/18 Q1015 NOSIG
LIRF 120420Z 01001KT 0200 R16L/1200U R16R/0275N R25/0275N R34R/0300N FG OVC001 20/20 Q1015 NOSIG
LIRF 120350Z VRB01KT 1500 0600NE R16L/1400U R16R/0225N R25/0250N R34R/0300N PRFG SCT002 20/20 Q1015 BECMG 0800 FG BKN002
LIRF 120320Z VRB01KT 5000 0900N R16L/0400N R16R/1200D R25/0250D R34R/0400D PRFG BR SCT002 20/20 Q1015 BECMG 0800 FG BKN002
LIRF 120250Z 05004KT 7000 R16L/1400D R16R/0900D R25/P1500N R34R/P1500N BCFG NSC 20/20 Q1015 NOSIG
LIRF 120220Z 05002KT 8000 NSC 20/20 Q1015 NOSIG
LIRF 120150Z 06003KT 8000 NSC 20/20 Q1015 NOSIG
LIRF 120120Z 07002KT 8000 NSC 20/20 Q1015 NOSIG
LIRF 120050Z VRB01KT CAVOK 21/21 Q1015 NOSIG
LIRF 120020Z VRB01KT CAVOK 21/21 Q1016 NOSIG
LIRF 112350Z 01001KT CAVOK 21/21 Q1016 NOSIG
LIRF 112320Z VRB01KT CAVOK 21/21 Q1016 NOSIG
LIRF 112250Z 05002KT CAVOK 22/22 Q1016 NOSIG
LIRF 112220Z VRB01KT CAVOK 23/22 Q1016 NOSIG
LIRF 112150Z VRB02KT CAVOK 24/23 Q1015 NOSIG
LIRF 112120Z 23005KT CAVOK 24/22 Q1016 NOSIG
LIRF 112050Z 24005KT CAVOK 24/22 Q1016 NOSIG
LIRF 112020Z 20003KT 160V230 CAVOK 25/23 Q1016 NOSIG
LIRF 111950Z VRB02KT CAVOK 25/23 Q1016 NOSIG
LIRF 111920Z 22003KT 190V250 CAVOK 25/23 Q1015 NOSIG
LIRF 111850Z 24005KT CAVOK 25/23 Q1015 NOSIG
LIRF 111750Z 25006KT CAVOK 27/22 Q1015 NOSIG
LIRF 111720Z 25004KT 200V280 CAVOK 28/21 Q1015 NOSIG
LIRF 111650Z 26005KT 220V300 CAVOK 28/22 Q1015 NOSIG
LIRF 111620Z 26007KT 220V290 CAVOK 28/22 Q1015 NOSIG
LIRF 111550Z 26009KT 220V280 CAVOK 29/21 Q1015 NOSIG
LIRF 111520Z 25008KT CAVOK 29/22 Q1015 NOSIG
LIRF 111450Z 25010KT CAVOK 29/21 Q1015 NOSIG
LIRF 111420Z 25010KT CAVOK 29/21 Q1015 NOSIG
LIRF 111320Z 25010KT 220V280 CAVOK 30/21 Q1015 NOSIG
LIRF 111250Z 23010KT CAVOK 30/21 Q1015 NOSIG
LIRF 111220Z 22009KT 200V260 CAVOK 30/20 Q1015 NOSIG
LIRF 111150Z 24010KT 200V260 CAVOK 31/21 Q1015 NOSIG
LIRF 111120Z 23009KT 200V270 CAVOK 30/23 Q1016 NOSIG
LIRF 111050Z 24010KT CAVOK 30/22 Q1016 NOSIG
LIRF 111020Z 23009KT CAVOK 30/22 Q1016 NOSIG
LIRF 110950Z 21007KT CAVOK 31/19 Q1016 NOSIG
LIRF 110920Z 20006KT 140V240 CAVOK 30/19 Q1016 NOSIG
LIRF 110850Z 20003KT 160V260 CAVOK 30/19 Q1016 NOSIG
LIRF 110820Z 17003KT 120V270 CAVOK 29/20 Q1016 NOSIG
LIRF 110750Z 17003KT 060V230 CAVOK 28/22 Q1015 NOSIG
LIRF 110720Z 17003KT 130V210 CAVOK 28/22 Q1015 NOSIG
LIRF 110650Z 12003KT 070V160 CAVOK 26/22 Q1015 NOSIG